1883 Hurricane NOT_NAMED (1883230N19312)


IBTrACS version v04r00. Visit IBTrACS website for data access.
Please direct all questions to the IBTrACS Q and A forum

Storm track - Intensity - Wind Radii - Intensity Data - Source Data - All data

Summary Information

Storm ID 1883230N19312
Start Aug 18 00Z
Max Intensity 100 kt (Aug 25 18Z), 941 mb (Aug 26 06Z)
End Aug 28 18Z
ATCF IDs AL011883
Track status Best track data.

Storm track plot

Map of storm track

Intensity plots

Map of storm track

Radial wind information

No radial wind information for this storm


Position and Intensity Table

BASIN ISO_TIME_________ NATURE LAT LON WMO WIND USA WIND MLC WIND MLC PRES
degrees north degrees east kts kts kts mb
NA 1883-08-18 00:00:00 TS 19.20 -48.50 40 40
NA 03:00:00 TS 19.31 -48.95 40
NA 06:00:00 TS 19.40 -49.50 40 40
NA 09:00:00 TS 19.45 -50.21 40
NA 12:00:00 TS 19.50 -51.00 40 40
NA 15:00:00 TS 19.57 -51.78 40
NA 18:00:00 TS 19.70 -52.60 40 40
NA 21:00:00 TS 19.93 -53.50 40
NA 1883-08-19 00:00:00 TS 20.20 -54.40 40 40
NA 03:00:00 TS 20.45 -55.22 40
NA 06:00:00 TS 20.70 -56.00 40 40
NA 09:00:00 TS 20.95 -56.76 45
NA 12:00:00 TS 21.20 -57.50 50 50
NA 15:00:00 TS 21.45 -58.25 50
NA 18:00:00 TS 21.70 -59.00 50 50
NA 21:00:00 TS 21.92 -59.73 50
NA 1883-08-20 00:00:00 TS 22.20 -60.50 50 50
NA 03:00:00 TS 22.62 -61.38 50
NA 06:00:00 TS 23.10 -62.30 50 50
NA 09:00:00 TS 23.57 -63.20 50
NA 12:00:00 TS 24.00 -64.00 50 50
NA 15:00:00 TS 24.33 -64.57 50
NA 18:00:00 TS 24.70 -65.10 50 50
NA 21:00:00 TS 25.21 -65.83 55
NA 1883-08-21 00:00:00 TS 25.80 -66.60 60 60
NA 03:00:00 TS 26.40 -67.34 60
NA 06:00:00 TS 27.00 -68.00 60 60
NA 09:00:00 TS 27.57 -68.58 60
NA 12:00:00 TS 28.10 -69.00 60 60
NA 15:00:00 TS 28.61 -69.02 60
NA 18:00:00 TS 29.06 -69.04 60 60 65
NA 21:00:00 TS 29.49 -69.13 65 67
NA 1883-08-22 00:00:00 TS 29.90 -69.27 70 70 70
NA 03:00:00 TS 30.32 -69.54 70 70
NA 06:00:00 TS 30.73 -69.77 70 70 70
NA 09:00:00 TS 31.15 -69.88 70 70
NA 12:00:00 TS 31.53 -69.93 70 70 70
NA 15:00:00 TS 31.87 -70.01 70 70
NA 18:00:00 TS 32.17 -70.07 70 70 70
NA 21:00:00 TS 32.45 -70.07 70 70
NA 1883-08-23 00:00:00 TS 32.73 -70.03 70 70 70
NA 03:00:00 TS 33.02 -70.01 70 70
NA 06:00:00 TS 33.30 -69.97 70 70 70
NA 09:00:00 TS 33.55 -69.88 70 70
NA 12:00:00 TS 33.77 -69.73 70 70 70
NA 15:00:00 TS 33.96 -69.51 70 70
NA 18:00:00 TS 34.17 -69.23 70 70 70
NA 21:00:00 TS 34.42 -68.92 70 70
NA 1883-08-24 00:00:00 TS 34.67 -68.60 70 70 70
NA 03:00:00 TS 34.87 -68.32 70 70
NA 06:00:00 TS 35.07 -68.03 70 70 70
NA 09:00:00 TS 35.27 -67.74 70 72
NA 12:00:00 TS 35.50 -67.40 70 70 75
NA 15:00:00 TS 35.77 -66.94 70 77
NA 18:00:00 TS 36.03 -66.47 70 70 80
NA 21:00:00 TS 36.25 -66.09 75 82
NA 1883-08-25 00:00:00 TS 36.47 -65.70 80 80 85
NA 03:00:00 TS 36.71 -65.21 80 87
NA 06:00:00 TS 37.00 -64.63 80 80 90
NA 09:00:00 TS 37.28 -64.08 80 92
NA 12:00:00 TS 37.70 -63.33 80 80 95
NA 15:00:00 TS 38.35 -62.22 80 97
NA 18:00:00 TS 39.17 -60.87 80 80 100
NA 21:00:00 TS 40.05 -59.46 80 100
NA 1883-08-26 00:00:00 TS 41.00 -57.93 80 80 100
NA 03:00:00 TS 41.93 -56.27 80 100
NA 06:00:00 TS 42.83 -54.57 80 80 100 941
NA 09:00:00 TS 43.67 -52.91 80 100
NA 12:00:00 TS 44.47 -51.30 80 80 100
NA 15:00:00 TS 45.23 -49.81 80 90
NA 18:00:00 TS 46.03 -48.23 80 80 80
NA 21:00:00 TS 46.95 -46.32 75 70
NA 1883-08-27 00:00:00 TS 47.87 -44.30 70 70 60
NA 03:00:00 TS 48.69 -42.38 70 60
NA 06:00:00 TS 49.50 -40.47 70 70 60
NA 09:00:00 TS 50.36 -38.48 65 60
NA 12:00:00 ET 51.17 -36.50 60 60 60
NA 15:00:00 ET 51.83 -34.58 60 60
NA 18:00:00 ET 52.47 -32.63 60 60 60
NA 21:00:00 ET 53.16 -30.51 60 60
NA 1883-08-28 00:00:00 ET 53.87 -28.33 60 60 60
NA 03:00:00 ET 54.58 -26.15 60 60
NA 06:00:00 ET 55.27 -24.00 60 60 60
NA 09:00:00 ET 55.88 -21.83 55 55
NA 12:00:00 ET 56.47 -19.80 50 50 50
NA 15:00:00 ET 57.06 -18.01 50 50
NA 18:00:00 ET 57.67 -16.33 50 50 50

Source Information

Agency Information
USA hurdat2-1851-2018-051019.txt:Line=4618:UNNAMED
TOKYO
CMA
HKO
NEWDELHI
REUNION
BOM
NADI
WELLINGTON
DS824
TD9636
TD9635
NEUMANN
MLC

All available IBTrACS Data

SEASON BASIN SUBBASIN ISO_TIME_________ NATURE LAT LON WMO WIND WMO AGENCY DIST2LAND LANDFALL IFLAG USA AGENCY USA ATCF_ID USA LAT USA LON USA STATUS USA WIND USA SSHS MLC LAT MLC LON MLC CLASS MLC WIND MLC PRES STORM SPEED STORM DIR
Year degrees north degrees east kts km km degrees north degrees east kts 1 degrees north degrees east kts mb kts degrees
1883 NA NA 1883-08-18 00:00:00 TS 19.20 -48.50 40 hurdat_atl 1612 1603 O_____________ hurdat_atl AL011883 19.20 -48.50 TS 40 0 9 285
1883 NA NA 03:00:00 TS 19.31 -48.95 1602 1571 P_____________ AL011883 19.31 -48.95 TS 40 0 10 282
1883 NA NA 06:00:00 TS 19.40 -49.50 40 hurdat_atl 1571 1513 O_____________ hurdat_atl AL011883 19.40 -49.50 TS 40 0 12 277
1883 NA NA 09:00:00 TS 19.45 -50.21 1520 1456 P_____________ AL011883 19.45 -50.21 TS 40 0 14 274
1883 NA NA 12:00:00 TS 19.50 -51.00 40 hurdat_atl 1456 1409 O_____________ hurdat_atl AL011883 19.50 -51.00 TS 40 0 15 275
1883 NA NA 15:00:00 TS 19.57 -51.78 1402 1351 P_____________ AL011883 19.57 -51.78 TS 40 0 15 278
1883 NA NA 18:00:00 TS 19.70 -52.60 40 hurdat_atl 1351 1292 O_____________ hurdat_atl AL011883 19.70 -52.60 TS 40 0 17 282
1883 NA NA 21:00:00 TS 19.93 -53.50 1281 1192 P_____________ AL011883 19.93 -53.50 TS 40 0 18 286
1883 NA NA 1883-08-19 00:00:00 TS 20.20 -54.40 40 hurdat_atl 1192 1113 O_____________ hurdat_atl AL011883 20.20 -54.40 TS 40 0 17 288
1883 NA NA 03:00:00 TS 20.45 -55.22 1113 1038 P_____________ AL011883 20.45 -55.22 TS 40 0 16 288
1883 NA NA 06:00:00 TS 20.70 -56.00 40 hurdat_atl 1038 972 O_____________ hurdat_atl AL011883 20.70 -56.00 TS 40 0 15 289
1883 NA NA 09:00:00 TS 20.95 -56.76 962 903 P_____________ AL011883 20.95 -56.76 TS 45 0 15 290
1883 NA NA 12:00:00 TS 21.20 -57.50 50 hurdat_atl 903 843 O_____________ hurdat_atl AL011883 21.20 -57.50 TS 50 0 15 290
1883 NA NA 15:00:00 TS 21.45 -58.25 833 781 P_____________ AL011883 21.45 -58.25 TS 50 0 15 290
1883 NA NA 18:00:00 TS 21.70 -59.00 50 hurdat_atl 781 729 O_____________ hurdat_atl AL011883 21.70 -59.00 TS 50 0 15 289
1883 NA NA 21:00:00 TS 21.92 -59.73 729 680 P_____________ AL011883 21.92 -59.73 TS 50 0 15 290
1883 NA NA 1883-08-20 00:00:00 TS 22.20 -60.50 50 hurdat_atl 680 648 O_____________ hurdat_atl AL011883 22.20 -60.50 TS 50 0 17 295
1883 NA NA 03:00:00 TS 22.62 -61.38 641 624 P_____________ AL011883 22.62 -61.38 TS 50 0 19 298
1883 NA NA 06:00:00 TS 23.10 -62.30 50 hurdat_atl 627 620 O_____________ hurdat_atl AL011883 23.10 -62.30 TS 50 0 19 299
1883 NA NA 09:00:00 TS 23.57 -63.20 632 628 P_____________ AL011883 23.57 -63.20 TS 50 0 18 300
1883 NA NA 12:00:00 TS 24.00 -64.00 50 hurdat_atl 647 645 O_____________ hurdat_atl AL011883 24.00 -64.00 TS 50 0 15 302
1883 NA NA 15:00:00 TS 24.33 -64.57 667 667 P_____________ AL011883 24.33 -64.57 TS 50 0 12 305
1883 NA NA 18:00:00 TS 24.70 -65.10 50 hurdat_atl 706 705 O_____________ hurdat_atl AL011883 24.70 -65.10 TS 50 0 14 308
1883 NA NA 21:00:00 TS 25.21 -65.83 751 746 P_____________ AL011883 25.21 -65.83 TS 55 0 18 309
1883 NA NA 1883-08-21 00:00:00 TS 25.80 -66.60 60 hurdat_atl 775 775 O_____________ hurdat_atl AL011883 25.80 -66.60 TS 60 0 18 311
1883 NA NA 03:00:00 TS 26.40 -67.34 808 805 P_____________ AL011883 26.40 -67.34 TS 60 0 17 314
1883 NA NA 06:00:00 TS 27.00 -68.00 60 hurdat_atl 822 822 O_____________ hurdat_atl AL011883 27.00 -68.00 TS 60 0 16 317
1883 NA NA 09:00:00 TS 27.57 -68.58 842 842 P_____________ AL011883 27.57 -68.58 TS 60 0 14 321
1883 NA NA 12:00:00 TS 28.10 -69.00 60 hurdat_atl 870 870 O_____________ hurdat_atl AL011883 28.10 -69.00 TS 60 0 11 339
1883 NA NA 15:00:00 TS 28.61 -69.02 919 919 P_____________ AL011883 28.56 -69.25 TS 60 0 10 357
1883 NA NA 18:00:00 TS 29.06 -69.04 60 hurdat_atl 942 905 O____________O hurdat_atl AL011883 29.00 -69.40 TS 60 0 29.30 -67.60 HU 65 9 354
1883 NA NA 21:00:00 TS 29.49 -69.13 905 860 P____________P AL011883 29.46 -69.56 TS 65 1 29.57 -67.97 HU 67 9 347
1883 NA NA 1883-08-22 00:00:00 TS 29.90 -69.27 70 hurdat_atl 860 816 O____________O hurdat_atl AL011883 29.90 -69.70 HU 70 1 29.90 -68.40 HU 70 9 337
1883 NA NA 03:00:00 TS 30.32 -69.54 816 765 P____________P AL011883 30.31 -69.86 HU 70 1 30.34 -68.90 HU 70 9 333
1883 NA NA 06:00:00 TS 30.73 -69.77 70 hurdat_atl 765 730 O____________O hurdat_atl AL011883 30.70 -70.00 HU 70 1 30.80 -69.30 HU 70 9 341
1883 NA NA 09:00:00 TS 31.15 -69.88 730 704 P____________P AL011883 31.11 -70.12 HU 70 1 31.23 -69.40 HU 70 8 350
1883 NA NA 12:00:00 TS 31.53 -69.93 70 hurdat_atl 704 667 O____________O hurdat_atl AL011883 31.50 -70.20 HU 70 1 31.60 -69.40 HU 70 7 351
1883 NA NA 15:00:00 TS 31.87 -70.01 667 638 P____________P AL011883 31.86 -70.27 HU 70 1 31.87 -69.50 HU 70 6 350
1883 NA NA 18:00:00 TS 32.17 -70.07 70 hurdat_atl 638 624 O____________O hurdat_atl AL011883 32.20 -70.30 HU 70 1 32.10 -69.60 HU 70 6 357
1883 NA NA 21:00:00 TS 32.45 -70.07 617 610 P____________P AL011883 32.51 -70.27 HU 70 1 32.35 -69.65 HU 70 6 4
1883 NA NA 1883-08-23 00:00:00 TS 32.73 -70.03 70 hurdat_atl 611 592 O____________O hurdat_atl AL011883 32.80 -70.20 HU 70 1 32.60 -69.70 HU 70 6 4
1883 NA NA 03:00:00 TS 33.02 -70.01 592 574 P____________P AL011883 33.11 -70.12 HU 70 1 32.86 -69.80 HU 70 6 5
1883 NA NA 06:00:00 TS 33.30 -69.97 70 hurdat_atl 574 568 O____________O hurdat_atl AL011883 33.40 -70.00 HU 70 1 33.10 -69.90 HU 70 5 12
1883 NA NA 09:00:00 TS 33.55 -69.88 571 566 P____________P AL011883 33.66 -69.82 HU 70 1 33.31 -70.00 HU 70 5 23
1883 NA NA 12:00:00 TS 33.77 -69.73 70 hurdat_atl 573 573 O____________O hurdat_atl AL011883 33.90 -69.60 HU 70 1 33.50 -70.00 HU 70 5 36
1883 NA NA 15:00:00 TS 33.96 -69.51 581 581 P____________P AL011883 34.09 -69.37 HU 70 1 33.71 -69.80 HU 70 6 46
1883 NA NA 18:00:00 TS 34.17 -69.23 70 hurdat_atl 599 599 O____________O hurdat_atl AL011883 34.30 -69.10 HU 70 1 33.90 -69.50 HU 70 7 47
1883 NA NA 21:00:00 TS 34.42 -68.92 618 615 P____________P AL011883 34.60 -68.76 HU 70 1 34.05 -69.25 HU 70 7 46
1883 NA NA 1883-08-24 00:00:00 TS 34.67 -68.60 70 hurdat_atl 636 636 O____________O hurdat_atl AL011883 34.90 -68.40 HU 70 1 34.20 -69.00 HU 70 7 48
1883 NA NA 03:00:00 TS 34.87 -68.32 659 659 P____________P AL011883 35.11 -68.10 HU 70 1 34.40 -68.75 HU 70 6 49
1883 NA NA 06:00:00 TS 35.07 -68.03 70 hurdat_atl 682 682 O____________O hurdat_atl AL011883 35.30 -67.80 HU 70 1 34.60 -68.50 HU 70 6 49
1883 NA NA 09:00:00 TS 35.27 -67.74 706 706 P____________P AL011883 35.53 -67.48 HU 70 1 34.75 -68.27 HU 72 7 50
1883 NA NA 12:00:00 TS 35.50 -67.40 70 hurdat_atl 726 706 O____________O hurdat_atl AL011883 35.80 -67.10 HU 70 1 34.90 -68.00 HU 75 8 53
1883 NA NA 15:00:00 TS 35.77 -66.94 709 699 P____________P AL011883 36.10 -66.61 HU 70 1 35.10 -67.62 HU 77 9 55
1883 NA NA 18:00:00 TS 36.03 -66.47 70 hurdat_atl 702 690 O____________O hurdat_atl AL011883 36.40 -66.10 HU 70 1 35.30 -67.20 HU 80 8 55
1883 NA NA 21:00:00 TS 36.25 -66.09 698 686 P____________P AL011883 36.65 -65.71 HU 75 1 35.45 -66.85 HU 82 8 55
1883 NA NA 1883-08-25 00:00:00 TS 36.47 -65.70 80 hurdat_atl 686 686 O____________O hurdat_atl AL011883 36.90 -65.30 HU 80 1 35.60 -66.50 HU 85 8 57
1883 NA NA 03:00:00 TS 36.71 -65.21 692 688 P____________P AL011883 37.17 -64.76 HU 80 1 35.80 -66.10 HU 87 10 58
1883 NA NA 06:00:00 TS 37.00 -64.63 80 hurdat_atl 698 695 O____________O hurdat_atl AL011883 37.50 -64.10 HU 80 1 36.00 -65.70 HU 90 11 58
1883 NA NA 09:00:00 TS 37.28 -64.08 697 664 P____________P AL011883 37.91 -63.37 HU 80 1 36.01 -65.51 HU 92 12 56
1883 NA NA 12:00:00 TS 37.70 -63.33 80 hurdat_atl 666 627 O____________O hurdat_atl AL011883 38.40 -62.50 HU 80 1 36.30 -65.00 HU 95 18 54
1883 NA NA 15:00:00 TS 38.35 -62.22 634 605 P____________P AL011883 38.89 -61.49 HU 80 1 37.27 -63.68 HU 97 24 53
1883 NA NA 18:00:00 TS 39.17 -60.87 80 hurdat_atl 602 584 O____________O hurdat_atl AL011883 39.50 -60.30 HU 80 1 38.50 -62.00 MH 100 27 51
1883 NA NA 21:00:00 TS 40.05 -59.46 577 536 P____________P AL011883 40.30 -58.93 HU 80 1 39.55 -60.53 MH 100 29 51
1883 NA NA 1883-08-26 00:00:00 TS 41.00 -57.93 80 hurdat_atl 533 520 O____________O hurdat_atl AL011883 41.20 -57.40 HU 80 1 40.60 -59.00 MH 100 31 52
1883 NA NA 03:00:00 TS 41.93 -56.27 526 431 P____________P AL011883 42.07 -55.77 HU 80 1 41.65 -57.28 MH 100 31 54
1883 NA NA 06:00:00 TS 42.83 -54.57 80 hurdat_atl 429 333 O____________O hurdat_atl AL011883 42.90 -54.10 HU 80 1 42.70 -55.50 MH 100 941 30 55
1883 NA NA 09:00:00 TS 43.67 -52.91 323 277 P____________P AL011883 43.61 -52.46 HU 80 1 43.78 -53.79 MH 100 29 55
1883 NA NA 12:00:00 TS 44.47 -51.30 80 hurdat_atl 275 275 O____________O hurdat_atl AL011883 44.30 -50.90 HU 80 1 44.80 -52.10 MH 100 27 55
1883 NA NA 15:00:00 TS 45.23 -49.81 303 303 P____________P AL011883 45.01 -49.51 HU 80 1 45.68 -50.39 MH 90 27 54
1883 NA NA 18:00:00 TS 46.03 -48.23 80 hurdat_atl 373 373 O____________O hurdat_atl AL011883 45.80 -48.00 HU 80 1 46.50 -48.70 HU 80 30 55
1883 NA NA 21:00:00 TS 46.95 -46.32 478 478 P____________P AL011883 46.75 -45.97 HU 75 1 47.35 -47.03 HU 70 32 56
1883 NA NA 1883-08-27 00:00:00 TS 47.87 -44.30 70 hurdat_atl 619 619 O____________O hurdat_atl AL011883 47.70 -43.80 HU 70 1 48.20 -45.30 TS 60 32 57
1883 NA NA 03:00:00 TS 48.69 -42.38 765 765 P____________P AL011883 48.51 -41.87 HU 70 1 49.06 -43.38 TS 60 30 57
1883 NA NA 06:00:00 TS 49.50 -40.47 70 hurdat_atl 909 909 O____________O hurdat_atl AL011883 49.30 -40.00 HU 70 1 49.90 -41.40 TS 60 30 57
1883 NA NA 09:00:00 TS 50.36 -38.48 1062 1062 P____________P AL011883 50.19 -37.96 HU 65 1 50.69 -39.53 TS 60 30 57
1883 NA NA 12:00:00 ET 51.17 -36.50 60 hurdat_atl 1067 1051 O____________O hurdat_atl AL011883 51.00 -36.00 EX 60 -4 51.50 -37.50 EX 60 28 59
1883 NA NA 15:00:00 ET 51.83 -34.58 1057 1050 P____________P AL011883 51.57 -34.38 EX 60 -4 52.35 -34.99 EX 60 27 61
1883 NA NA 18:00:00 ET 52.47 -32.63 60 hurdat_atl 1057 1057 O____________O hurdat_atl AL011883 52.10 -32.80 EX 60 -4 53.20 -32.30 EX 60 28 62
1883 NA NA 21:00:00 ET 53.16 -30.51 1078 1078 P____________P AL011883 52.73 -30.92 EX 60 -4 54.00 -29.70 EX 60 29 61
1883 NA NA 1883-08-28 00:00:00 ET 53.87 -28.33 60 hurdat_atl 1120 1042 O____________O hurdat_atl AL011883 53.40 -28.90 EX 60 -4 54.80 -27.20 EX 60 29 61
1883 NA NA 03:00:00 ET 54.58 -26.15 1035 899 P____________P AL011883 54.07 -26.81 EX 60 -4 55.59 -24.85 EX 60 29 61
1883 NA NA 06:00:00 ET 55.27 -24.00 60 hurdat_atl 893 768 O____________O hurdat_atl AL011883 54.70 -24.70 EX 60 -4 56.40 -22.60 EX 60 28 62
1883 NA NA 09:00:00 ET 55.88 -21.83 763 662 P____________P AL011883 55.22 -22.62 EX 55 -4 57.20 -20.25 EX 55 26 63
1883 NA NA 12:00:00 ET 56.47 -19.80 50 hurdat_atl 660 587 O____________O hurdat_atl AL011883 55.70 -20.70 EX 50 -4 58.00 -18.00 EX 50 24 61
1883 NA NA 15:00:00 ET 57.06 -18.01 587 542 P____________P AL011883 56.19 -19.03 EX 50 -4 58.80 -15.96 EX 50 22 58
1883 NA NA 18:00:00 ET 57.67 -16.33 50 hurdat_atl 541 O____________O hurdat_atl AL011883 56.70 -17.50 EX 50 -4 59.60 -14.00 EX 50 22 56